createdAt,value
2022-11-10T00:00:53.688Z,11.83
2022-11-10T00:03:20.511Z,11.84
2022-11-10T00:05:47.249Z,11.88
2022-11-10T00:08:13.687Z,11.84
2022-11-10T00:10:58.553Z,11.80
2022-11-10T00:13:26.962Z,11.84
2022-11-10T00:16:12.995Z,11.79
2022-11-10T00:18:39.409Z,11.80
2022-11-10T00:21:08.474Z,11.75
2022-11-10T00:23:35.269Z,11.73
2022-11-10T00:26:01.893Z,11.69
2022-11-10T00:28:31.736Z,11.63
2022-11-10T00:30:59.193Z,11.54
2022-11-10T00:33:25.656Z,11.53
2022-11-10T00:35:52.153Z,11.53
2022-11-10T00:38:18.608Z,11.50
2022-11-10T00:40:45.024Z,11.52
2022-11-10T00:43:11.421Z,11.58
2022-11-10T00:45:42.024Z,11.64
2022-11-10T00:48:08.489Z,11.65
2022-11-10T00:50:34.933Z,11.62
2022-11-10T00:53:01.487Z,11.63
2022-11-10T00:55:27.909Z,11.58
2022-11-10T00:57:54.305Z,11.57
2022-11-10T01:00:20.828Z,11.61
2022-11-10T01:02:47.239Z,11.56
2022-11-10T01:05:13.640Z,11.55
2022-11-10T01:07:40.046Z,11.46
2022-11-10T01:10:06.973Z,11.48
2022-11-10T01:12:33.367Z,11.58
2022-11-10T01:14:59.815Z,11.65
2022-11-10T01:17:26.283Z,11.70
2022-11-10T01:19:52.677Z,11.66
2022-11-10T01:22:19.099Z,11.65
2022-11-10T01:24:45.509Z,11.66
2022-11-10T01:27:12.095Z,11.66
2022-11-10T01:29:38.480Z,11.61
2022-11-10T01:32:05.104Z,11.57
2022-11-10T01:34:31.634Z,11.58
2022-11-10T01:36:58.061Z,11.53
2022-11-10T01:39:24.525Z,11.55
2022-11-10T01:41:51.011Z,11.51
2022-11-10T01:44:20.956Z,11.51
2022-11-10T01:46:47.450Z,11.48
2022-11-10T01:49:15.988Z,11.46
2022-11-10T01:51:50.555Z,11.46
2022-11-10T01:54:25.477Z,11.46
2022-11-10T01:56:55.534Z,11.41
2022-11-10T01:59:26.013Z,11.46
2022-11-10T02:01:55.191Z,11.47
2022-11-10T02:04:22.045Z,11.42
2022-11-10T02:06:50.510Z,11.30
2022-11-10T02:09:17.585Z,11.31
2022-11-10T02:11:44.523Z,11.28
2022-11-10T02:14:13.077Z,11.11
2022-11-10T02:16:39.889Z,11.07
2022-11-10T02:19:24.430Z,10.96
2022-11-10T02:21:51.376Z,10.96
2022-11-10T02:24:17.914Z,10.83
2022-11-10T02:26:50.696Z,10.83
2022-11-10T02:29:17.163Z,10.71
2022-11-10T02:31:43.730Z,10.61
2022-11-10T02:34:11.016Z,10.59
2022-11-10T02:36:37.556Z,10.56
2022-11-10T02:39:04.427Z,10.49
2022-11-10T02:41:30.852Z,10.41
2022-11-10T02:43:58.821Z,10.37
2022-11-10T02:46:25.394Z,10.28
2022-11-10T02:48:51.860Z,10.38
2022-11-10T02:51:18.331Z,10.34
2022-11-10T02:53:44.735Z,10.35
2022-11-10T02:56:11.156Z,10.38
2022-11-10T02:58:37.623Z,10.35
2022-11-10T03:01:05.887Z,10.37
2022-11-10T03:03:33.128Z,10.30
2022-11-10T03:06:00.140Z,10.20
2022-11-10T03:08:26.552Z,10.16
2022-11-10T03:10:55.153Z,10.02
2022-11-10T03:13:22.373Z,10.02
2022-11-10T03:15:49.110Z,10.02
2022-11-10T03:18:15.572Z,9.99
2022-11-10T03:20:42.028Z,9.82
2022-11-10T03:23:08.916Z,9.67
2022-11-10T03:25:35.405Z,9.53
2022-11-10T03:28:01.923Z,9.51
2022-11-10T03:30:29.050Z,9.65
2022-11-10T03:32:55.475Z,9.54
2022-11-10T03:35:21.949Z,9.68
2022-11-10T03:37:48.447Z,9.64
2022-11-10T03:40:15.160Z,9.64
2022-11-10T03:42:45.835Z,9.53
2022-11-10T03:45:14.214Z,9.56
2022-11-10T03:47:40.978Z,9.56
2022-11-10T03:50:07.907Z,9.53
2022-11-10T03:52:34.453Z,9.39
2022-11-10T03:55:03.472Z,9.42
2022-11-10T03:57:30.209Z,9.47
2022-11-10T03:59:56.607Z,9.44
2022-11-10T04:02:23.141Z,9.51
2022-11-10T04:05:07.903Z,9.55
2022-11-10T04:07:52.662Z,9.57
2022-11-10T04:10:19.162Z,9.49
2022-11-10T04:13:04.270Z,9.33
2022-11-10T04:15:42.595Z,9.23
2022-11-10T04:18:26.420Z,9.27
2022-11-10T04:20:55.815Z,9.28
2022-11-10T04:23:27.143Z,9.18
2022-11-10T04:26:28.575Z,9.26
2022-11-10T04:28:58.318Z,9.11
2022-11-10T04:31:26.393Z,9.15
2022-11-10T04:33:53.576Z,9.19
2022-11-10T04:36:23.273Z,9.13
2022-11-10T04:38:50.271Z,9.05
2022-11-10T04:41:17.234Z,9.00
2022-11-10T04:43:44.016Z,8.99
2022-11-10T04:46:22.418Z,8.93
2022-11-10T04:48:49.539Z,9.05
2022-11-10T04:51:17.324Z,8.88
2022-11-10T04:53:43.773Z,8.83
2022-11-10T04:56:17.745Z,8.79
2022-11-10T04:58:44.579Z,8.82
2022-11-10T05:01:12.978Z,8.77
2022-11-10T05:03:39.918Z,8.77
2022-11-10T05:06:06.909Z,8.71
2022-11-10T05:08:33.866Z,8.69
2022-11-10T05:11:00.334Z,8.78
2022-11-10T05:13:26.836Z,8.94
2022-11-10T05:15:53.408Z,9.29
2022-11-10T05:18:19.889Z,9.31
2022-11-10T05:20:46.296Z,9.12
2022-11-10T05:23:31.452Z,8.80
2022-11-10T05:25:57.875Z,8.86
2022-11-10T05:28:24.316Z,8.96
2022-11-10T05:30:50.755Z,8.83
2022-11-10T05:33:17.169Z,8.85
2022-11-10T05:35:44.228Z,8.60
2022-11-10T05:38:10.807Z,8.63
2022-11-10T05:40:37.211Z,8.78
2022-11-10T05:43:03.649Z,8.87
2022-11-10T05:45:30.164Z,8.92
2022-11-10T05:47:57.216Z,8.86
2022-11-10T05:50:24.473Z,8.99
2022-11-10T05:52:53.337Z,9.05
2022-11-10T05:55:23.342Z,9.01
2022-11-10T05:57:51.230Z,8.93
2022-11-10T06:00:23.211Z,8.91
2022-11-10T06:03:06.259Z,8.80
2022-11-10T06:05:36.173Z,8.79
2022-11-10T06:08:04.777Z,8.74
2022-11-10T06:10:32.552Z,8.70
2022-11-10T06:12:59.055Z,8.63
2022-11-10T06:15:26.359Z,8.69
2022-11-10T06:17:53.234Z,8.71
2022-11-10T06:20:20.447Z,8.70
2022-11-10T06:23:07.405Z,8.57
2022-11-10T06:25:35.841Z,8.61
2022-11-10T06:28:02.932Z,8.63
2022-11-10T06:30:31.124Z,8.66
2022-11-10T06:32:57.748Z,8.74
2022-11-10T06:35:25.024Z,8.46
2022-11-10T06:38:20.543Z,8.42
2022-11-10T06:40:47.012Z,8.50
2022-11-10T06:43:13.540Z,8.59
2022-11-10T06:45:39.967Z,8.62
2022-11-10T06:48:14.332Z,9.08
2022-11-10T06:50:40.883Z,9.21
2022-11-10T06:53:07.447Z,9.29
2022-11-10T06:55:33.876Z,9.09
2022-11-10T06:58:00.304Z,9.03
2022-11-10T07:00:27.815Z,9.06
2022-11-10T07:03:05.718Z,9.01
2022-11-10T07:05:34.374Z,9.12
2022-11-10T07:08:06.075Z,8.94
2022-11-10T07:10:33.542Z,8.91
2022-11-10T07:13:01.300Z,9.09
2022-11-10T07:15:28.279Z,9.05
2022-11-10T07:17:55.202Z,9.06
2022-11-10T07:20:21.753Z,9.01
2022-11-10T07:22:48.189Z,8.97
2022-11-10T07:25:14.850Z,9.11
2022-11-10T07:27:41.328Z,9.24
2022-11-10T07:30:08.325Z,9.23
2022-11-10T07:32:34.826Z,9.34
2022-11-10T07:35:01.229Z,9.32
2022-11-10T07:37:27.677Z,9.31
2022-11-10T07:39:54.136Z,9.34
2022-11-10T07:42:20.538Z,9.47
2022-11-10T07:44:46.958Z,9.50
2022-11-10T07:47:13.330Z,9.63
2022-11-10T07:49:39.826Z,9.71
2022-11-10T07:52:06.252Z,9.80
2022-11-10T07:54:32.644Z,10.24
2022-11-10T07:56:59.027Z,10.59
2022-11-10T07:59:25.643Z,10.96
2022-11-10T08:01:52.065Z,11.49
2022-11-10T08:04:18.642Z,11.98
2022-11-10T08:06:45.146Z,12.40
2022-11-10T08:09:11.674Z,12.73
2022-11-10T08:11:38.080Z,13.24
2022-11-10T08:14:04.610Z,13.57
2022-11-10T08:16:31.015Z,13.83
2022-11-10T08:18:57.419Z,14.32
2022-11-10T08:21:23.805Z,14.44
2022-11-10T08:23:50.262Z,14.82
2022-11-10T08:26:17.784Z,15.24
2022-11-10T08:28:44.253Z,15.91
2022-11-10T08:31:10.634Z,16.00
2022-11-10T08:33:37.214Z,16.55
2022-11-10T08:36:04.999Z,17.00
2022-11-10T08:38:31.448Z,17.32
2022-11-10T08:40:57.892Z,17.64
2022-11-10T08:43:24.980Z,18.02
2022-11-10T08:45:54.844Z,18.30
2022-11-10T08:48:21.300Z,18.61
2022-11-10T08:50:49.500Z,18.73
2022-11-10T08:53:18.842Z,18.91
2022-11-10T08:55:45.876Z,19.23
2022-11-10T08:58:15.021Z,19.37
2022-11-10T09:00:41.828Z,19.40
2022-11-10T09:03:12.555Z,19.60
2022-11-10T09:05:39.494Z,19.50
2022-11-10T09:08:06.288Z,19.86
2022-11-10T09:10:35.435Z,20.20
2022-11-10T09:13:03.573Z,20.28
2022-11-10T09:15:31.999Z,20.34
2022-11-10T09:17:59.868Z,20.05
2022-11-10T09:20:28.243Z,20.30
2022-11-10T09:22:54.863Z,20.47
2022-11-10T09:25:21.575Z,20.27
2022-11-10T09:27:48.003Z,20.49
2022-11-10T09:30:17.911Z,20.30
2022-11-10T09:32:46.693Z,20.38
2022-11-10T09:35:13.647Z,20.32
2022-11-10T09:37:40.800Z,19.77
2022-11-10T09:40:31.005Z,19.34
2022-11-10T09:43:00.539Z,20.56
2022-11-10T09:45:35.059Z,21.06
2022-11-10T09:48:12.320Z,21.17
2022-11-10T09:50:48.362Z,21.59
2022-11-10T09:53:20.899Z,21.28
2022-11-10T09:55:54.973Z,21.40
2022-11-10T09:58:25.900Z,21.34
2022-11-10T10:01:38.050Z,21.09
2022-11-10T10:04:33.693Z,21.25
2022-11-10T10:07:20.828Z,21.75
2022-11-10T10:09:49.988Z,21.46
2022-11-10T10:12:35.918Z,21.16
2022-11-10T10:15:37.431Z,21.93
2022-11-10T10:18:17.416Z,22.40
2022-11-10T10:21:20.081Z,22.39
2022-11-10T10:24:09.566Z,22.38
2022-11-10T10:26:41.129Z,22.47
2022-11-10T10:29:11.242Z,22.32
2022-11-10T10:31:44.611Z,23.13
2022-11-10T10:34:17.450Z,23.09
2022-11-10T10:36:47.352Z,22.66
2022-11-10T10:39:27.204Z,22.85
2022-11-10T10:41:53.686Z,23.27
2022-11-10T10:44:20.337Z,23.44
2022-11-10T10:46:50.470Z,22.68
2022-11-10T10:49:29.219Z,22.23
2022-11-10T10:52:17.114Z,22.93
2022-11-10T10:54:43.689Z,23.65
2022-11-10T10:57:30.882Z,23.96
2022-11-10T11:00:15.311Z,23.50
2022-11-10T11:02:41.720Z,24.00
2022-11-10T11:05:15.571Z,23.80
2022-11-10T11:07:53.672Z,24.01
2022-11-10T11:10:23.484Z,23.93
2022-11-10T11:12:50.011Z,23.99
2022-11-10T11:15:28.654Z,24.21
2022-11-10T11:18:00.745Z,24.12
2022-11-10T11:20:57.838Z,24.03
2022-11-10T11:23:50.971Z,24.67
2022-11-10T11:26:43.090Z,24.68
2022-11-10T11:29:47.304Z,24.98
2022-11-10T11:32:32.120Z,24.93
2022-11-10T11:35:31.446Z,24.39
2022-11-10T11:38:37.547Z,24.86
2022-11-10T11:41:07.003Z,24.36
2022-11-10T11:43:58.093Z,24.56
2022-11-10T11:46:43.561Z,24.81
2022-11-10T11:49:51.156Z,25.17
2022-11-10T11:52:34.662Z,25.27
2022-11-10T11:55:13.290Z,25.65
2022-11-10T11:57:48.826Z,25.07
2022-11-10T12:00:18.323Z,24.08
2022-11-10T12:02:56.913Z,24.46
2022-11-10T12:05:38.390Z,25.12
2022-11-10T12:08:24.105Z,23.94
2022-11-10T12:10:56.629Z,24.79
2022-11-10T12:13:37.671Z,24.46
2022-11-10T12:16:28.804Z,24.19
2022-11-10T12:19:19.634Z,23.20
2022-11-10T12:21:51.575Z,23.86
2022-11-10T12:24:55.246Z,22.67
2022-11-10T12:27:41.539Z,23.83
2022-11-10T12:30:14.250Z,23.97
2022-11-10T12:32:53.085Z,22.99
2022-11-10T12:35:33.978Z,23.20
2022-11-10T12:38:06.571Z,23.73
2022-11-10T12:40:41.988Z,23.80
2022-11-10T12:43:53.856Z,23.71
2022-11-10T12:46:20.259Z,23.51
2022-11-10T12:49:12.291Z,23.62
2022-11-10T12:51:57.165Z,23.37
2022-11-10T12:54:27.309Z,23.78
2022-11-10T12:56:57.997Z,23.67
2022-11-10T12:59:28.979Z,23.78
2022-11-10T13:02:17.492Z,23.21
2022-11-10T13:04:43.991Z,22.20
2022-11-10T13:07:13.642Z,22.27
2022-11-10T13:09:43.757Z,21.60
2022-11-10T13:12:10.111Z,21.93
2022-11-10T13:14:38.371Z,21.66
2022-11-10T13:17:06.548Z,21.56
2022-11-10T13:19:47.786Z,21.56
2022-11-10T13:22:43.611Z,21.49
2022-11-10T13:25:37.965Z,21.61
2022-11-10T13:28:05.373Z,21.62
2022-11-10T13:30:45.514Z,21.11
2022-11-10T13:33:39.041Z,20.44
2022-11-10T13:36:05.535Z,20.27
2022-11-10T13:38:31.951Z,20.49
2022-11-10T13:41:16.650Z,20.32
2022-11-10T13:43:54.164Z,20.23
2022-11-10T13:46:33.588Z,19.54
2022-11-10T13:49:27.675Z,19.44
2022-11-10T13:52:06.264Z,19.38
2022-11-10T13:54:47.548Z,19.45
2022-11-10T13:57:31.357Z,19.15
2022-11-10T14:00:01.028Z,18.83
2022-11-10T14:02:37.090Z,18.51
2022-11-10T14:05:06.345Z,18.28
2022-11-10T14:07:42.585Z,18.07
2022-11-10T14:10:17.061Z,17.89
2022-11-10T14:12:53.398Z,17.86
2022-11-10T14:15:23.956Z,17.85
2022-11-10T14:17:55.946Z,17.78
2022-11-10T14:20:40.281Z,17.69
2022-11-10T14:23:12.655Z,17.55
2022-11-10T14:25:42.924Z,17.34
2022-11-10T14:28:38.991Z,17.17
2022-11-10T14:31:05.970Z,17.08
2022-11-10T14:33:32.653Z,17.09
2022-11-10T14:36:05.935Z,16.69
2022-11-10T14:38:33.981Z,16.59
2022-11-10T14:41:03.107Z,16.46
2022-11-10T14:43:39.017Z,16.39
2022-11-10T14:46:07.165Z,16.25
2022-11-10T14:48:36.759Z,16.17
2022-11-10T14:51:13.107Z,16.34
2022-11-10T14:53:45.787Z,16.22
2022-11-10T14:56:42.615Z,15.93
2022-11-10T14:59:13.104Z,15.69
2022-11-10T15:01:42.245Z,15.45
2022-11-10T15:04:11.743Z,15.59
2022-11-10T15:06:43.129Z,15.53
2022-11-10T15:09:15.167Z,15.52
2022-11-10T15:11:51.676Z,15.50
2022-11-10T15:14:39.708Z,15.45
2022-11-10T15:17:11.821Z,15.26
2022-11-10T15:19:55.684Z,15.46
2022-11-10T15:22:31.245Z,15.61
2022-11-10T15:25:07.661Z,15.40
2022-11-10T15:27:34.652Z,15.44
2022-11-10T15:30:02.762Z,15.29
2022-11-10T15:32:45.850Z,15.24
2022-11-10T15:35:27.523Z,15.33
2022-11-10T15:38:23.877Z,15.20
2022-11-10T15:40:51.923Z,15.13
2022-11-10T15:43:27.586Z,15.06
2022-11-10T15:46:17.465Z,15.03
2022-11-10T15:48:47.600Z,15.04
2022-11-10T15:51:19.063Z,15.05
2022-11-10T15:53:50.943Z,15.01
2022-11-10T15:56:20.680Z,14.92
2022-11-10T15:58:57.682Z,14.42
2022-11-10T16:01:27.474Z,14.18
2022-11-10T16:03:53.931Z,14.10
2022-11-10T16:06:20.419Z,14.13
2022-11-10T16:08:47.163Z,14.24
2022-11-10T16:11:21.435Z,14.29
2022-11-10T16:13:49.368Z,14.16
2022-11-10T16:16:20.357Z,14.08
2022-11-10T16:18:46.826Z,13.98
2022-11-10T16:21:15.611Z,13.89
2022-11-10T16:23:42.828Z,13.79
2022-11-10T16:26:15.238Z,13.59
2022-11-10T16:28:47.669Z,13.67
2022-11-10T16:31:16.126Z,13.45
2022-11-10T16:33:42.645Z,13.32
2022-11-10T16:36:30.865Z,13.13
2022-11-10T16:38:57.907Z,13.07
2022-11-10T16:41:24.610Z,12.95
2022-11-10T16:43:51.043Z,12.95
2022-11-10T16:46:23.972Z,13.09
2022-11-10T16:48:53.810Z,13.11
2022-11-10T16:51:29.250Z,13.11
2022-11-10T16:53:55.995Z,13.11
2022-11-10T16:56:23.098Z,12.94
2022-11-10T16:58:49.508Z,12.87
2022-11-10T17:01:22.499Z,12.87
2022-11-10T17:03:52.071Z,12.70
2022-11-10T17:06:19.432Z,12.66
2022-11-10T17:08:48.258Z,12.76
2022-11-10T17:11:14.884Z,12.76
2022-11-10T17:13:41.287Z,12.91
2022-11-10T17:16:19.820Z,13.02
2022-11-10T17:18:46.555Z,12.75
2022-11-10T17:21:14.078Z,12.61
2022-11-10T17:23:40.854Z,12.56
2022-11-10T17:26:10.459Z,12.43
2022-11-10T17:28:36.906Z,12.53
2022-11-10T17:31:03.473Z,12.28
2022-11-10T17:33:29.875Z,12.24
2022-11-10T17:35:57.348Z,12.24
2022-11-10T17:38:30.263Z,12.18
2022-11-10T17:40:56.809Z,12.19
2022-11-10T17:43:23.656Z,12.07
2022-11-10T17:45:50.942Z,11.91
2022-11-10T17:48:17.453Z,11.92
2022-11-10T17:50:46.797Z,11.97
2022-11-10T17:53:16.491Z,11.82
2022-11-10T17:55:42.922Z,11.83
2022-11-10T17:58:10.759Z,11.82
2022-11-10T18:00:37.455Z,11.93
2022-11-10T18:03:08.489Z,11.94
2022-11-10T18:05:35.618Z,11.76
2022-11-10T18:08:02.163Z,11.56
2022-11-10T18:10:28.586Z,11.35
2022-11-10T18:12:55.034Z,11.30
2022-11-10T18:15:21.586Z,11.32
2022-11-10T18:17:48.055Z,11.25
2022-11-10T18:20:14.733Z,11.36
2022-11-10T18:22:41.198Z,11.20
2022-11-10T18:25:09.091Z,11.20
2022-11-10T18:27:36.070Z,11.16
2022-11-10T18:30:03.887Z,11.31
2022-11-10T18:32:30.464Z,11.15
2022-11-10T18:34:56.891Z,11.04
2022-11-10T18:37:23.376Z,10.76
2022-11-10T18:39:49.874Z,10.61
2022-11-10T18:42:16.291Z,10.58
2022-11-10T18:44:42.728Z,10.66
2022-11-10T18:47:12.364Z,10.61
2022-11-10T18:49:38.794Z,10.61
2022-11-10T18:52:05.211Z,10.49
2022-11-10T18:54:31.754Z,10.50
2022-11-10T18:56:58.316Z,10.31
2022-11-10T18:59:24.789Z,10.20
2022-11-10T19:01:51.339Z,10.22
2022-11-10T19:04:17.779Z,10.14
2022-11-10T19:06:44.273Z,10.16
2022-11-10T19:09:11.320Z,10.24
2022-11-10T19:11:37.856Z,10.11
2022-11-10T19:14:04.286Z,10.19
2022-11-10T19:16:30.805Z,10.35
2022-11-10T19:18:57.305Z,10.45
2022-11-10T19:21:28.407Z,10.44
2022-11-10T19:23:56.794Z,10.45
2022-11-10T19:26:24.890Z,10.40
2022-11-10T19:28:54.725Z,10.40
2022-11-10T19:31:22.547Z,10.40
2022-11-10T19:33:51.445Z,10.23
2022-11-10T19:36:23.837Z,10.03
2022-11-10T19:38:50.903Z,10.09
2022-11-10T19:41:20.530Z,10.10
2022-11-10T19:43:47.802Z,10.22
2022-11-10T19:46:17.052Z,10.48
2022-11-10T19:48:44.524Z,10.36
2022-11-10T19:51:19.208Z,10.46
2022-11-10T19:53:47.902Z,10.58
2022-11-10T19:56:20.314Z,10.37
2022-11-10T19:58:47.832Z,10.43
2022-11-10T20:01:15.901Z,10.38
2022-11-10T20:03:43.335Z,10.35
2022-11-10T20:06:15.332Z,10.17
2022-11-10T20:08:41.796Z,10.14
2022-11-10T20:11:10.146Z,10.32
2022-11-10T20:13:36.745Z,10.35
2022-11-10T20:16:12.105Z,10.40
2022-11-10T20:18:39.911Z,10.38
2022-11-10T20:21:10.742Z,10.39
2022-11-10T20:23:37.868Z,10.26
2022-11-10T20:26:09.056Z,10.09
2022-11-10T20:28:37.421Z,10.15
2022-11-10T20:31:07.485Z,10.12
2022-11-10T20:33:34.190Z,10.06
2022-11-10T20:36:10.085Z,10.05
2022-11-10T20:38:37.442Z,10.00
2022-11-10T20:41:10.896Z,10.16
2022-11-10T20:43:37.921Z,10.14
2022-11-10T20:46:06.554Z,10.17
2022-11-10T20:48:34.366Z,10.28
2022-11-10T20:51:01.529Z,10.15
2022-11-10T20:53:29.542Z,10.01
2022-11-10T20:55:58.015Z,10.02
2022-11-10T20:58:24.656Z,10.12
2022-11-10T21:00:51.459Z,9.83
2022-11-10T21:03:18.082Z,9.80
2022-11-10T21:05:44.796Z,9.78
2022-11-10T21:08:11.213Z,9.64
2022-11-10T21:10:37.610Z,9.73
2022-11-10T21:13:04.016Z,9.62
2022-11-10T21:15:30.411Z,9.55
2022-11-10T21:17:56.829Z,9.58
2022-11-10T21:20:23.343Z,9.63
2022-11-10T21:22:49.787Z,9.64
2022-11-10T21:25:16.861Z,9.52
2022-11-10T21:27:43.325Z,9.49
2022-11-10T21:30:22.445Z,9.47
2022-11-10T21:32:48.962Z,9.39
2022-11-10T21:35:16.323Z,9.33
2022-11-10T21:37:42.764Z,9.34
2022-11-10T21:40:09.953Z,9.12
2022-11-10T21:42:36.343Z,8.91
2022-11-10T21:45:02.925Z,8.91
2022-11-10T21:47:29.364Z,9.07
2022-11-10T21:49:55.810Z,9.24
2022-11-10T21:52:22.243Z,9.17
2022-11-10T21:54:48.623Z,9.14
2022-11-10T21:57:15.016Z,9.07
2022-11-10T21:59:41.464Z,8.99
2022-11-10T22:02:09.839Z,9.07
2022-11-10T22:04:36.435Z,9.16
2022-11-10T22:07:21.520Z,8.99
2022-11-10T22:10:06.379Z,8.80
2022-11-10T22:12:51.293Z,8.69
2022-11-10T22:15:36.544Z,8.48
2022-11-10T22:18:22.011Z,8.33
2022-11-10T22:20:48.499Z,8.34
2022-11-10T22:23:14.871Z,8.26
2022-11-10T22:25:41.356Z,8.19
2022-11-10T22:28:07.794Z,8.12
2022-11-10T22:30:36.188Z,8.14
2022-11-10T22:33:22.856Z,8.15
2022-11-10T22:35:56.248Z,8.08
2022-11-10T22:38:22.653Z,8.05
2022-11-10T22:41:07.439Z,8.13
2022-11-10T22:43:53.383Z,7.83
2022-11-10T22:46:19.812Z,7.84
2022-11-10T22:48:46.201Z,7.86
2022-11-10T22:51:12.584Z,7.85
2022-11-10T22:53:38.994Z,7.96
2022-11-10T22:56:05.833Z,7.84
2022-11-10T22:58:32.357Z,7.90
2022-11-10T23:01:07.324Z,7.98
2022-11-10T23:03:34.935Z,8.05
2022-11-10T23:06:01.735Z,7.89
2022-11-10T23:08:28.415Z,7.93
2022-11-10T23:11:07.264Z,7.95
2022-11-10T23:13:35.272Z,7.97
2022-11-10T23:16:10.794Z,8.01
2022-11-10T23:18:38.672Z,8.00
2022-11-10T23:21:07.599Z,8.04
2022-11-10T23:23:36.189Z,8.03
2022-11-10T23:26:05.217Z,8.10
2022-11-10T23:28:32.939Z,8.09
2022-11-10T23:31:17.816Z,8.22
2022-11-10T23:33:46.243Z,8.09
2022-11-10T23:36:14.706Z,7.92
2022-11-10T23:38:42.173Z,7.96
2022-11-10T23:41:13.631Z,7.96
2022-11-10T23:43:40.397Z,7.90
2022-11-10T23:46:08.162Z,8.01
2022-11-10T23:48:35.839Z,8.12
2022-11-10T23:51:02.742Z,8.11
2022-11-10T23:53:29.417Z,8.09
2022-11-10T23:56:00.458Z,8.00
2022-11-10T23:58:27.410Z,8.06
